createdAt,value
2019-04-03T00:00:41.771Z,47.00
2019-04-03T00:03:11.139Z,46.90
2019-04-03T00:05:40.375Z,46.70
2019-04-03T00:08:09.727Z,47.20
2019-04-03T00:10:39.046Z,47.10
2019-04-03T00:13:10.478Z,47.50
2019-04-03T00:15:39.427Z,47.90
2019-04-03T00:18:08.868Z,48.00
2019-04-03T00:20:38.159Z,48.80
2019-04-03T00:23:07.563Z,49.20
2019-04-03T00:25:36.944Z,49.60
2019-04-03T00:28:06.271Z,50.20
2019-04-03T00:30:35.654Z,50.20
2019-04-03T00:33:04.991Z,50.60
2019-04-03T00:35:35.337Z,51.10
2019-04-03T00:38:04.655Z,50.30
2019-04-03T00:40:34.019Z,50.10
2019-04-03T00:43:04.339Z,50.10
2019-04-03T00:45:33.638Z,51.00
2019-04-03T00:48:02.883Z,50.00
2019-04-03T00:50:32.187Z,49.80
2019-04-03T00:53:01.423Z,50.20
2019-04-03T00:55:30.771Z,50.50
2019-04-03T00:58:00.032Z,50.50
2019-04-03T01:00:29.439Z,51.00
2019-04-03T01:02:59.112Z,51.70
2019-04-03T01:05:29.048Z,52.20
2019-04-03T01:07:59.899Z,52.40
2019-04-03T01:10:30.201Z,52.60
2019-04-03T01:13:01.375Z,52.60
2019-04-03T01:15:31.530Z,52.50
2019-04-03T01:18:04.297Z,52.60
2019-04-03T01:20:32.455Z,52.40
2019-04-03T01:23:01.809Z,52.50
2019-04-03T01:25:31.136Z,52.90
2019-04-03T01:28:00.499Z,53.00
2019-04-03T01:30:29.865Z,52.90
2019-04-03T01:32:59.166Z,53.20
2019-04-03T01:35:28.432Z,53.20
2019-04-03T01:37:57.722Z,53.20
2019-04-03T01:40:26.975Z,53.00
2019-04-03T01:42:56.273Z,53.00
2019-04-03T01:45:26.234Z,53.00
2019-04-03T01:47:57.315Z,53.20
2019-04-03T01:50:28.632Z,53.60
2019-04-03T01:52:58.471Z,53.70
2019-04-03T01:55:27.804Z,53.30
2019-04-03T01:57:57.122Z,53.50
2019-04-03T02:00:26.376Z,53.40
2019-04-03T02:02:55.732Z,53.40
2019-04-03T02:05:25.119Z,53.20
2019-04-03T02:07:54.351Z,53.00
2019-04-03T02:10:23.702Z,53.20
2019-04-03T02:12:52.967Z,53.20
2019-04-03T02:15:22.365Z,53.30
2019-04-03T02:17:54.233Z,53.50
2019-04-03T02:20:22.634Z,53.80
2019-04-03T02:22:52.065Z,53.60
2019-04-03T02:25:21.382Z,54.50
2019-04-03T02:27:50.885Z,56.20
2019-04-03T02:30:20.552Z,57.60
2019-04-03T02:32:49.917Z,57.80
2019-04-03T02:35:19.190Z,56.90
2019-04-03T02:37:49.714Z,56.30
2019-04-03T02:40:19.468Z,56.70
2019-04-03T02:42:49.015Z,56.70
2019-04-03T02:45:18.630Z,56.90
2019-04-03T02:47:49.212Z,57.40
2019-04-03T02:50:24.539Z,56.70
2019-04-03T02:52:56.703Z,56.70
2019-04-03T02:55:24.971Z,56.40
2019-04-03T02:57:54.278Z,56.10
2019-04-03T03:00:23.793Z,56.00
2019-04-03T03:02:53.129Z,56.00
2019-04-03T03:05:22.601Z,55.60
2019-04-03T03:07:51.960Z,55.60
2019-04-03T03:10:21.418Z,55.50
2019-04-03T03:12:50.734Z,55.00
2019-04-03T03:15:20.254Z,55.00
2019-04-03T03:17:49.682Z,55.50
2019-04-03T03:20:22.202Z,55.80
2019-04-03T03:22:51.811Z,55.40
2019-04-03T03:25:22.159Z,56.90
2019-04-03T03:27:51.450Z,57.80
2019-04-03T03:30:35.754Z,57.20
2019-04-03T03:32:52.174Z,56.70
2019-04-03T03:35:29.404Z,57.00
2019-04-03T03:37:53.408Z,58.20
2019-04-03T03:40:23.739Z,59.30
2019-04-03T03:42:53.029Z,59.50
2019-04-03T03:45:22.579Z,58.90
2019-04-03T03:47:52.088Z,58.90
2019-04-03T03:50:25.680Z,59.00
2019-04-03T03:52:55.164Z,58.20
2019-04-03T03:55:25.644Z,57.90
2019-04-03T03:57:55.527Z,57.70
2019-04-03T04:00:25.029Z,56.70
2019-04-03T04:02:54.656Z,57.30
2019-04-03T04:05:23.970Z,58.30
2019-04-03T04:07:53.563Z,59.70
2019-04-03T04:10:25.476Z,59.10
2019-04-03T04:12:54.152Z,58.90
2019-04-03T04:15:23.887Z,59.00
2019-04-03T04:17:54.574Z,58.50
2019-04-03T04:20:23.899Z,58.30
2019-04-03T04:22:53.238Z,58.40
2019-04-03T04:25:22.537Z,58.40
2019-04-03T04:27:52.867Z,59.00
2019-04-03T04:30:22.127Z,59.10
2019-04-03T04:32:51.419Z,59.10
2019-04-03T04:35:22.027Z,59.40
2019-04-03T04:37:51.468Z,60.20
2019-04-03T04:40:20.720Z,60.30
2019-04-03T04:42:50.138Z,60.70
2019-04-03T04:45:19.431Z,61.40
2019-04-03T04:47:48.720Z,61.10
2019-04-03T04:50:24.283Z,61.40
2019-04-03T04:52:53.514Z,61.20
2019-04-03T04:55:22.820Z,61.30
2019-04-03T04:57:52.225Z,61.30
2019-04-03T05:00:21.584Z,61.70
2019-04-03T05:02:51.499Z,62.40
2019-04-03T05:05:20.890Z,62.90
2019-04-03T05:07:50.374Z,63.60
2019-04-03T05:10:20.639Z,63.90
2019-04-03T05:12:49.902Z,63.90
2019-04-03T05:15:21.890Z,63.00
2019-04-03T05:17:50.567Z,63.10
2019-04-03T05:20:20.530Z,63.60
2019-04-03T05:22:49.907Z,63.40
2019-04-03T05:25:19.206Z,63.80
2019-04-03T05:27:48.467Z,64.30
2019-04-03T05:30:30.291Z,64.90
2019-04-03T05:32:59.822Z,65.20
2019-04-03T05:35:29.231Z,64.80
2019-04-03T05:37:58.515Z,64.90
2019-04-03T05:40:27.927Z,64.90
2019-04-03T05:42:59.256Z,65.00
2019-04-03T05:45:28.106Z,65.50
2019-04-03T05:47:57.622Z,64.10
2019-04-03T05:50:27.229Z,62.80
2019-04-03T05:52:56.543Z,62.60
2019-04-03T05:55:25.836Z,62.30
2019-04-03T05:57:55.117Z,62.20
2019-04-03T06:00:24.466Z,62.50
2019-04-03T06:02:54.097Z,62.60
2019-04-03T06:05:24.645Z,61.60
2019-04-03T06:07:53.911Z,60.90
2019-04-03T06:10:23.267Z,61.40
2019-04-03T06:12:52.638Z,61.90
2019-04-03T06:15:22.812Z,61.70
2019-04-03T06:17:54.275Z,60.10
2019-04-03T06:20:23.243Z,59.50
2019-04-03T06:22:52.551Z,58.60
2019-04-03T06:25:21.987Z,58.80
2019-04-03T06:27:52.619Z,59.00
2019-04-03T06:30:25.017Z,60.40
2019-04-03T06:32:54.940Z,59.70
2019-04-03T06:35:24.740Z,60.10
2019-04-03T06:37:55.072Z,59.50
2019-04-03T06:40:24.363Z,59.10
2019-04-03T06:43:15.343Z,59.70
2019-04-03T06:45:45.174Z,60.10
2019-04-03T06:48:14.499Z,58.60
2019-04-03T06:50:43.791Z,57.60
2019-04-03T06:53:13.056Z,57.30
2019-04-03T06:55:42.422Z,57.00
2019-04-03T06:58:12.320Z,57.00
2019-04-03T07:00:41.761Z,56.40
2019-04-03T07:03:11.023Z,55.50
2019-04-03T07:05:41.912Z,55.70
2019-04-03T07:08:11.566Z,56.00
2019-04-03T07:10:40.883Z,56.00
2019-04-03T07:13:10.220Z,55.30
2019-04-03T07:15:39.515Z,55.20
2019-04-03T07:18:08.780Z,55.50
2019-04-03T07:20:38.071Z,55.10
2019-04-03T07:23:07.410Z,54.40
2019-04-03T07:25:36.727Z,54.10
2019-04-03T07:28:08.622Z,54.20
2019-04-03T07:30:36.922Z,54.30
2019-04-03T07:33:06.378Z,54.00
2019-04-03T07:35:36.163Z,52.90
2019-04-03T07:38:05.588Z,52.80
2019-04-03T07:40:35.471Z,53.00
2019-04-03T07:43:05.100Z,52.10
2019-04-03T07:45:34.443Z,51.50
2019-04-03T07:48:06.696Z,50.80
2019-04-03T07:50:36.951Z,49.20
2019-04-03T07:53:06.678Z,49.70
2019-04-03T07:55:36.044Z,49.80
2019-04-03T07:58:05.312Z,48.50
2019-04-03T08:00:36.286Z,48.80
2019-04-03T08:03:05.567Z,48.20
2019-04-03T08:05:34.953Z,47.90
2019-04-03T08:08:04.363Z,47.10
2019-04-03T08:10:34.295Z,47.40
2019-04-03T08:13:04.992Z,46.80
2019-04-03T08:15:35.704Z,47.00
2019-04-03T08:18:05.143Z,45.90
2019-04-03T08:20:34.567Z,45.70
2019-04-03T08:23:05.967Z,46.50
2019-04-03T08:25:35.073Z,45.50
2019-04-03T08:28:04.431Z,44.80
2019-04-03T08:30:33.695Z,43.90
2019-04-03T08:33:14.836Z,43.80
2019-04-03T08:35:35.801Z,44.10
2019-04-03T08:38:04.810Z,43.60
2019-04-03T08:40:34.450Z,43.80
2019-04-03T08:43:04.134Z,44.10
2019-04-03T08:45:33.686Z,43.60
2019-04-03T08:48:05.846Z,43.20
2019-04-03T08:50:33.903Z,43.10
2019-04-03T08:53:03.199Z,43.20
2019-04-03T08:55:32.463Z,42.20
2019-04-03T08:58:02.828Z,40.60
2019-04-03T09:00:32.753Z,41.10
2019-04-03T09:03:04.104Z,42.40
2019-04-03T09:05:34.415Z,41.70
2019-04-03T09:08:03.776Z,40.00
2019-04-03T09:10:36.494Z,38.20
2019-04-03T09:13:16.030Z,37.20
2019-04-03T09:15:35.042Z,37.30
2019-04-03T09:18:06.429Z,38.80
2019-04-03T09:20:36.016Z,38.10
2019-04-03T09:23:05.559Z,40.00
2019-04-03T09:25:34.833Z,39.00
2019-04-03T09:28:04.199Z,38.80
2019-04-03T09:30:33.661Z,37.50
2019-04-03T09:33:02.950Z,37.80
2019-04-03T09:35:33.189Z,38.30
2019-04-03T09:38:02.587Z,36.20
2019-04-03T09:40:31.890Z,34.90
2019-04-03T09:43:01.375Z,32.50
2019-04-03T09:45:30.739Z,30.20
2019-04-03T09:48:00.306Z,29.30
2019-04-03T09:50:29.675Z,29.10
2019-04-03T09:53:01.802Z,28.50
2019-04-03T09:55:33.464Z,27.80
2019-04-03T09:58:03.677Z,27.40
2019-04-03T10:00:31.944Z,27.40
2019-04-03T10:03:01.243Z,26.80
2019-04-03T10:05:30.610Z,27.60
2019-04-03T10:07:59.978Z,26.30
2019-04-03T10:10:29.266Z,26.90
2019-04-03T10:12:58.651Z,26.90
2019-04-03T10:15:29.066Z,25.80
2019-04-03T10:17:58.878Z,26.40
2019-04-03T10:20:28.207Z,25.10
2019-04-03T10:22:57.475Z,24.40
2019-04-03T10:25:26.767Z,24.40
2019-04-03T10:27:56.031Z,23.10
2019-04-03T10:30:25.491Z,24.50
2019-04-03T10:32:56.955Z,23.70
2019-04-03T10:35:25.739Z,24.40
2019-04-03T10:37:55.119Z,25.10
2019-04-03T10:40:25.086Z,24.80
2019-04-03T10:42:55.272Z,25.80
2019-04-03T10:45:24.858Z,25.20
2019-04-03T10:47:56.358Z,25.40
2019-04-03T10:50:25.262Z,25.00
2019-04-03T10:52:54.554Z,25.20
2019-04-03T10:55:23.863Z,24.10
2019-04-03T10:57:53.271Z,24.40
2019-04-03T11:00:24.640Z,25.90
2019-04-03T11:02:53.523Z,26.00
2019-04-03T11:05:22.887Z,27.20
2019-04-03T11:07:52.415Z,25.90
2019-04-03T11:10:24.154Z,26.80
2019-04-03T11:12:52.734Z,26.10
2019-04-03T11:15:22.671Z,25.10
2019-04-03T11:17:52.094Z,25.40
2019-04-03T11:20:21.662Z,24.20
2019-04-03T11:23:04.112Z,25.00
2019-04-03T11:25:22.094Z,25.50
2019-04-03T11:27:51.740Z,24.50
2019-04-03T11:30:24.221Z,24.10
2019-04-03T11:32:52.083Z,24.10
2019-04-03T11:35:22.389Z,23.00
2019-04-03T11:37:51.930Z,22.40
2019-04-03T11:40:24.099Z,23.00
2019-04-03T11:42:52.302Z,22.50
2019-04-03T11:45:23.523Z,23.60
2019-04-03T11:47:53.493Z,23.60
2019-04-03T11:50:24.371Z,24.80
2019-04-03T11:52:53.764Z,26.30
2019-04-03T11:55:23.405Z,24.20
2019-04-03T11:57:52.766Z,24.30
2019-04-03T12:00:29.805Z,24.40
2019-04-03T12:02:59.286Z,24.60
2019-04-03T12:05:28.597Z,23.60
2019-04-03T12:07:57.864Z,22.70
2019-04-03T12:10:27.136Z,22.30
2019-04-03T12:12:57.464Z,20.30
2019-04-03T12:15:26.943Z,19.50
2019-04-03T12:17:56.486Z,20.80
2019-04-03T12:20:27.199Z,20.70
2019-04-03T12:22:56.541Z,20.70
2019-04-03T12:25:25.803Z,22.50
2019-04-03T12:27:55.136Z,21.10
2019-04-03T12:30:26.386Z,21.10
2019-04-03T12:32:55.724Z,20.70
2019-04-03T12:35:25.155Z,22.90
2019-04-03T12:37:54.907Z,21.40
2019-04-03T12:40:24.258Z,21.30
2019-04-03T12:42:54.272Z,21.00
2019-04-03T12:45:26.156Z,19.90
2019-04-03T12:47:54.750Z,21.10
2019-04-03T12:50:26.859Z,21.00
2019-04-03T12:52:54.990Z,20.90
2019-04-03T12:55:25.989Z,21.20
2019-04-03T12:57:55.291Z,20.00
2019-04-03T13:00:24.732Z,20.60
2019-04-03T13:02:54.323Z,19.80
2019-04-03T13:05:23.663Z,19.50
2019-04-03T13:07:52.969Z,20.70
2019-04-03T13:10:22.526Z,19.80
2019-04-03T13:12:54.618Z,18.00
2019-04-03T13:15:22.778Z,18.90
2019-04-03T13:17:52.205Z,18.00
2019-04-03T13:20:21.479Z,18.50
2019-04-03T13:22:50.806Z,19.50
2019-04-03T13:25:21.396Z,19.20
2019-04-03T13:27:51.104Z,20.80
2019-04-03T13:30:20.936Z,20.20
2019-04-03T13:32:59.087Z,21.50
2019-04-03T13:35:21.931Z,19.70
2019-04-03T13:37:51.311Z,19.70
2019-04-03T13:40:20.591Z,20.20
2019-04-03T13:42:50.063Z,20.40
2019-04-03T13:45:19.342Z,19.80
2019-04-03T13:47:48.874Z,20.00
2019-04-03T13:50:18.443Z,20.80
2019-04-03T13:52:49.907Z,20.70
2019-04-03T13:55:18.778Z,20.90
2019-04-03T13:57:49.798Z,21.30
2019-04-03T14:00:22.733Z,20.80
2019-04-03T14:02:50.571Z,20.20
2019-04-03T14:05:19.928Z,20.40
2019-04-03T14:07:50.797Z,21.10
2019-04-03T14:10:20.245Z,21.80
2019-04-03T14:12:49.570Z,22.90
2019-04-03T14:15:20.304Z,23.00
2019-04-03T14:17:57.244Z,22.10
2019-04-03T14:20:23.677Z,22.60
2019-04-03T14:22:55.411Z,22.60
2019-04-03T14:25:31.282Z,21.70
2019-04-03T14:27:57.134Z,22.10
2019-04-03T14:30:26.850Z,22.30
2019-04-03T14:32:56.262Z,22.60
2019-04-03T14:35:54.961Z,22.70
2019-04-03T14:37:59.904Z,23.60
2019-04-03T14:40:29.654Z,24.00
2019-04-03T14:43:00.092Z,23.70
2019-04-03T14:45:29.982Z,23.70
2019-04-03T14:47:59.589Z,23.40
2019-04-03T14:50:29.261Z,24.20
2019-04-03T14:52:58.628Z,24.20
2019-04-03T14:55:28.724Z,24.30
2019-04-03T14:57:58.832Z,24.10
2019-04-03T15:00:31.026Z,25.20
2019-04-03T15:02:59.318Z,25.10
2019-04-03T15:05:28.706Z,25.90
2019-04-03T15:07:58.162Z,25.00
2019-04-03T15:10:30.747Z,25.00
2019-04-03T15:13:00.068Z,24.70
2019-04-03T15:15:29.369Z,25.70
2019-04-03T15:17:58.891Z,25.70
2019-04-03T15:20:28.489Z,26.20
2019-04-03T15:22:57.850Z,26.30
2019-04-03T15:25:27.154Z,25.80
2019-04-03T15:27:57.300Z,26.20
2019-04-03T15:30:27.482Z,26.40
2019-04-03T15:32:56.763Z,26.00
2019-04-03T15:35:26.454Z,26.40
2019-04-03T15:37:56.006Z,26.80
2019-04-03T15:40:26.858Z,26.50
2019-04-03T15:42:56.814Z,26.50
2019-04-03T15:45:26.300Z,26.70
2019-04-03T15:47:57.562Z,26.50
2019-04-03T15:50:28.004Z,26.50
2019-04-03T15:52:57.466Z,26.90
2019-04-03T15:55:27.231Z,25.90
2019-04-03T15:57:57.851Z,26.30
2019-04-03T16:00:27.542Z,26.50
2019-04-03T16:02:57.010Z,27.10
2019-04-03T16:05:29.509Z,27.10
2019-04-03T16:07:57.524Z,27.30
2019-04-03T16:10:27.109Z,27.40
2019-04-03T16:12:56.772Z,27.20
2019-04-03T16:15:26.121Z,27.30
2019-04-03T16:17:55.468Z,27.50
2019-04-03T16:20:24.694Z,27.60
2019-04-03T16:22:54.047Z,27.70
2019-04-03T16:25:23.375Z,28.00
2019-04-03T16:27:52.596Z,28.00
2019-04-03T16:30:21.894Z,28.10
2019-04-03T16:32:51.131Z,28.50
2019-04-03T16:35:20.392Z,28.70
2019-04-03T16:37:50.934Z,27.90
2019-04-03T16:40:20.628Z,28.10
2019-04-03T16:42:52.970Z,28.70
2019-04-03T16:45:22.034Z,28.70
2019-04-03T16:47:51.759Z,28.30
2019-04-03T16:50:21.103Z,28.60
2019-04-03T16:52:50.728Z,28.40
2019-04-03T16:55:20.542Z,28.70
2019-04-03T16:57:53.127Z,28.80
2019-04-03T17:00:40.984Z,29.20
2019-04-03T17:03:11.765Z,29.10
2019-04-03T17:05:41.506Z,29.90
2019-04-03T17:08:12.255Z,29.30
2019-04-03T17:10:42.315Z,29.50
2019-04-03T17:13:11.680Z,29.30
2019-04-03T17:15:40.935Z,29.70
2019-04-03T17:18:10.856Z,29.80
2019-04-03T17:20:40.902Z,29.80
2019-04-03T17:23:12.303Z,29.90
2019-04-03T17:25:48.230Z,29.60
2019-04-03T17:28:11.955Z,29.90
2019-04-03T17:30:41.413Z,29.80
2019-04-03T17:33:10.707Z,30.00
2019-04-03T17:35:41.325Z,30.10
2019-04-03T17:38:10.738Z,30.30
2019-04-03T17:40:39.987Z,30.50
2019-04-03T17:43:09.270Z,30.50
2019-04-03T17:45:38.603Z,31.20
2019-04-03T17:48:07.911Z,30.80
2019-04-03T17:50:37.177Z,31.10
2019-04-03T17:53:07.083Z,30.80
2019-04-03T17:55:36.499Z,31.30
2019-04-03T17:58:05.779Z,31.40
2019-04-03T18:00:35.207Z,31.90
2019-04-03T18:03:04.760Z,31.70
2019-04-03T18:05:34.191Z,31.80
2019-04-03T18:08:03.555Z,31.90
2019-04-03T18:10:32.811Z,31.70
2019-04-03T18:13:02.123Z,32.00
2019-04-03T18:15:32.940Z,31.90
2019-04-03T18:18:02.881Z,32.00
2019-04-03T18:20:32.698Z,32.20
2019-04-03T18:23:01.999Z,32.40
2019-04-03T18:25:31.274Z,32.30
2019-04-03T18:28:00.724Z,32.50
2019-04-03T18:30:30.047Z,33.50
2019-04-03T18:32:59.327Z,32.80
2019-04-03T18:35:28.592Z,32.80
2019-04-03T18:37:57.876Z,33.20
2019-04-03T18:40:27.130Z,34.40
2019-04-03T18:42:56.411Z,33.60
2019-04-03T18:45:25.999Z,33.70
2019-04-03T18:47:55.718Z,34.10
2019-04-03T18:50:25.050Z,33.70
2019-04-03T18:52:54.551Z,33.90
2019-04-03T18:55:23.811Z,34.20
2019-04-03T18:57:53.136Z,34.30
2019-04-03T19:00:22.418Z,35.10
2019-04-03T19:02:51.747Z,34.30
2019-04-03T19:05:21.034Z,34.50
2019-04-03T19:07:50.291Z,34.80
2019-04-03T19:10:22.918Z,34.80
2019-04-03T19:12:50.454Z,34.80
2019-04-03T19:15:19.806Z,35.10
2019-04-03T19:17:59.303Z,34.60
2019-04-03T19:20:20.939Z,34.90
2019-04-03T19:23:01.918Z,34.90
2019-04-03T19:25:21.368Z,35.00
2019-04-03T19:27:50.715Z,35.00
2019-04-03T19:30:20.068Z,35.30
2019-04-03T19:32:50.811Z,35.50
2019-04-03T19:35:21.260Z,35.90
2019-04-03T19:37:51.687Z,35.60
2019-04-03T19:40:20.971Z,35.80
2019-04-03T19:42:50.294Z,35.80
2019-04-03T19:45:21.436Z,35.90
2019-04-03T19:47:50.533Z,36.10
2019-04-03T19:50:19.936Z,36.30
2019-04-03T19:52:49.555Z,36.50
2019-04-03T19:55:19.506Z,36.90
2019-04-03T19:57:48.991Z,37.10
2019-04-03T20:00:18.346Z,38.00
2019-04-03T20:02:47.671Z,38.90
2019-04-03T20:05:19.037Z,44.20
2019-04-03T20:07:48.050Z,51.00
2019-04-03T20:10:17.343Z,54.80
2019-04-03T20:12:46.776Z,57.90
2019-04-03T20:15:17.095Z,60.00
2019-04-03T20:17:46.355Z,62.10
2019-04-03T20:20:15.635Z,64.50
2019-04-03T20:22:44.899Z,65.80
2019-04-03T20:25:15.203Z,66.80
2019-04-03T20:27:47.222Z,67.70
2019-04-03T20:30:15.566Z,68.50
2019-04-03T20:32:44.851Z,68.50
2019-04-03T20:35:18.007Z,68.70
2019-04-03T20:37:46.119Z,69.10
2019-04-03T20:40:15.370Z,69.40
2019-04-03T20:42:44.650Z,70.00
2019-04-03T20:45:13.907Z,70.60
2019-04-03T20:47:43.281Z,71.30
2019-04-03T20:50:12.529Z,71.80
2019-04-03T20:52:41.874Z,72.00
2019-04-03T20:55:11.126Z,72.50
2019-04-03T20:57:40.408Z,73.00
2019-04-03T21:00:11.867Z,73.10
2019-04-03T21:02:42.179Z,73.30
2019-04-03T21:05:11.539Z,73.60
2019-04-03T21:07:40.818Z,73.50
2019-04-03T21:10:10.071Z,73.30
2019-04-03T21:12:39.373Z,73.60
2019-04-03T21:15:09.446Z,73.60
2019-04-03T21:17:38.827Z,73.60
2019-04-03T21:20:08.078Z,73.80
2019-04-03T21:22:37.355Z,73.80
2019-04-03T21:25:06.659Z,74.00
2019-04-03T21:27:39.808Z,74.10
2019-04-03T21:30:09.280Z,74.10
2019-04-03T21:32:38.491Z,74.20
2019-04-03T21:35:07.834Z,74.10
2019-04-03T21:37:39.782Z,74.50
2019-04-03T21:40:07.992Z,74.70
2019-04-03T21:42:37.238Z,74.80
2019-04-03T21:45:07.701Z,75.10
2019-04-03T21:47:37.613Z,75.40
2019-04-03T21:50:06.962Z,75.20
2019-04-03T21:52:36.208Z,75.20
2019-04-03T21:55:07.055Z,75.40
2019-04-03T21:57:38.386Z,75.30
2019-04-03T22:00:08.183Z,75.00
2019-04-03T22:02:39.327Z,75.30
2019-04-03T22:05:08.619Z,75.60
2019-04-03T22:07:37.872Z,75.30
2019-04-03T22:10:08.800Z,75.40
2019-04-03T22:12:38.101Z,75.40
2019-04-03T22:15:07.500Z,75.50
2019-04-03T22:17:36.886Z,75.20
2019-04-03T22:20:06.234Z,75.00
2019-04-03T22:22:35.560Z,75.30
2019-04-03T22:25:05.039Z,75.10
2019-04-03T22:27:34.334Z,75.60
2019-04-03T22:30:03.679Z,75.60
2019-04-03T22:32:34.103Z,75.70
2019-04-03T22:35:04.375Z,75.80
2019-04-03T22:37:35.146Z,76.00
2019-04-03T22:40:06.227Z,75.60
2019-04-03T22:42:35.548Z,75.40
2019-04-03T22:45:05.395Z,75.60
2019-04-03T22:47:34.787Z,76.00
2019-04-03T22:50:05.776Z,75.90
2019-04-03T22:52:35.062Z,76.10
2019-04-03T22:55:05.670Z,76.10
2019-04-03T22:57:34.947Z,76.40
2019-04-03T23:00:06.366Z,76.00
2019-04-03T23:02:37.210Z,76.40
2019-04-03T23:05:06.733Z,76.40
2019-04-03T23:07:36.009Z,77.00
2019-04-03T23:10:06.910Z,77.00
2019-04-03T23:12:36.231Z,77.10
2019-04-03T23:15:08.526Z,77.20
2019-04-03T23:17:37.127Z,77.10
2019-04-03T23:20:06.749Z,78.10
2019-04-03T23:22:36.086Z,77.50
2019-04-03T23:25:06.987Z,77.80
2019-04-03T23:27:36.264Z,77.90
2019-04-03T23:30:09.920Z,78.00
2019-04-03T23:32:38.464Z,79.10
2019-04-03T23:35:07.766Z,78.50
2019-04-03T23:37:36.991Z,78.80
2019-04-03T23:40:07.110Z,78.90
2019-04-03T23:42:37.847Z,79.00
2019-04-03T23:45:08.042Z,78.90
2019-04-03T23:47:37.310Z,79.60
2019-04-03T23:50:07.871Z,78.90
2019-04-03T23:52:37.149Z,78.50
2019-04-03T23:55:06.404Z,78.20
2019-04-03T23:57:35.924Z,77.80
